Etusivu
METAR-TAF:

METAR-TAF

Lentoasemat :

Ivano-Frankivsk, Ukraina

Leveyspiiri: 48-53-03N, Pituuspiiri: 024-41-10E, korkeus merenpinnasta: 280 m

Tämänhetkinen sää

Tämä raportti tehtiin 1 tunti ja 38 minuuttia sitten, kello 18.00 UTC
Tuuli 2 kn pohjoisen/luoteesta
Lämpötila 12°C
Kosteus 40%
Ilmanpaine 1025 hPa
Näkyvyys 10 km tai enemmän
ei pilviä alle 1500 m:ssä eikä cumulonimbus-pilviä

METAR: UKLI 081800Z 34001MPS CAVOK 12/M01 Q1025 NOSIG

Aika: 22:38 (19:38 UTC)

Sääennuste

Tämä raportti tehtiin 5 tuntia ja 35 minuuttia sitten, kello 14.03 UTC
Ennuste voimassa 08. päivästä klo 15 UTC - 08. päivään klo 24 UTC
Tuuli 2 kn eri suunnista
Näkyvyys 10 km tai enemmän
Hajanaisia pilviä 3000 ft:n korkeudessa

TAF: UKLI 081403Z 0815/0824 VRB01MPS 9999 SCT030 TX19/0815Z TN03/0824Z

Säähavainnot ja -ennusteet yli 4000 lentoasemalta (METAR- ja TAF-raportit).

Käytössä olevat sääasemat on merkitty karttaan keltaisilla ja punaisilla pisteillä.

Aseta hiiri pisteen päälle nähdäksesi sääaseman nimen.

Klikkaa sitten nähdäksesi säähavainnot ja -ennusteet.

Kartan vaihtaminen: klikkaa mustalla rastilla varustettuja vihreitä pisteitä, niin voit zoomata sisään; viivalla varustettua vihreää pistettä, niin voit zoomata ulos tai vihreitä nuolia, niin pääset viereisille kartoille.


METAR-TAF: